Toutle, Washington
Current Conditions -  °F | °C
As of 12:55 AM on Thursday 23 Oct 2014 (Local Time) from KKLS Reporting Station
Broken Clouds Broken Clouds  
Wind Chill: 55°   Ceiling: 10000
Heat Index: 55°   Visibility: 10mi
Dew Point: 48°   Wind: 10mph
Humidity: 77%   Direction: 140°SE
Pressure: 29.79"   Gusts: NA
Location:  46.32°N, 122.71°W
Report Text: KKLS 230755Z AUTO 14009KT 10SM BKN100 13/09 A2979 RMK AO1
Loading
Personal Weather Stations






























Interactive Weather Map
Tropical Storm Tracking
New forecast layout! Learn more

10-Day Weather Forecast

Advertisements
Track Severe Weather on mobile